Time;durP1;ratioP1;P1;durP2;ratioP2;P2;SDS_P1;SDS_P2;PMS_P1;PMS_P2;Temp;Humidity;BMP_temperature;BMP_pressure;BME280_temperature;BME280_humidity;BME280_pressure;Samples;Min_cycle;Max_cycle;Signal;HPM_P1;HPM_P2
2021/03/29 00:02:00;;;;;;;15.25;6.40;;;;;;;;;;5092841;28;20033;-74
2021/03/29 00:04:29;;;;;;;12.70;6.75;;;;;;;;;;5092682;28;20024;-74
2021/03/29 00:06:55;;;;;;;17.42;7.03;;;;;;;;;;5092742;28;20028;-73
2021/03/29 00:09:21;;;;;;;13.77;6.53;;;;;;;;;;5092401;28;20077;-75
2021/03/29 00:11:47;;;;;;;18.88;7.10;;;;;;;;;;5092757;28;20024;-76
2021/03/29 00:14:13;;;;;;;15.07;6.95;;;;;;;;;;5092645;28;20067;-75
2021/03/29 00:16:39;;;;;;;16.90;7.72;;;;;;;;;;5092642;28;20447;-76
2021/03/29 00:19:08;;;;;;;14.15;6.88;;;;;;;;;;5092997;28;20020;-76
2021/03/29 00:21:34;;;;;;;14.80;6.95;;;;;;;;;;5092557;28;20008;-76
2021/03/29 00:24:02;;;;;;;15.15;6.35;;;;;;;;;;5092582;28;20039;-76
2021/03/29 00:26:27;;;;;;;20.55;9.20;;;;;;;;;;5092641;28;20505;-77
2021/03/29 00:28:55;;;;;;;19.63;7.78;;;;;;;;;;5092545;28;20035;-75
2021/03/29 00:31:20;;;;;;;17.83;8.32;;;;;;;;;;5092650;28;20028;-74
2021/03/29 00:33:45;;;;;;;17.60;7.40;;;;;;;;;;5094322;28;20375;-74
2021/03/29 00:36:11;;;;;;;18.45;7.90;;;;;;;;;;5096067;28;20020;-75
2021/03/29 00:38:39;;;;;;;17.38;7.72;;;;;;;;;;5096055;28;20446;-76
2021/03/29 00:41:09;;;;;;;24.20;8.48;;;;;;;;;;5095928;28;20027;-75
2021/03/29 00:43:35;;;;;;;15.52;7.95;;;;;;;;;;5095929;28;20016;-77
2021/03/29 00:46:02;;;;;;;21.63;7.28;;;;;;;;;;5094783;28;20019;-77
2021/03/29 00:48:30;;;;;;;13.82;6.97;;;;;;;;;;5096098;28;20027;-77
2021/03/29 00:50:58;;;;;;;15.27;7.40;;;;;;;;;;5095744;28;20447;-76
2021/03/29 00:53:24;;;;;;;16.23;7.78;;;;;;;;;;5095827;28;20028;-76
2021/03/29 00:55:50;;;;;;;17.95;7.50;;;;;;;;;;5095710;28;20091;-75
2021/03/29 00:58:16;;;;;;;18.08;7.43;;;;;;;;;;5095707;28;20027;-76
2021/03/29 01:00:43;;;;;;;22.15;7.18;;;;;;;;;;5095709;28;20074;-76
2021/03/29 01:03:15;;;;;;;21.05;7.18;;;;;;;;;;5095663;28;20164;-76
2021/03/29 01:05:42;;;;;;;14.85;7.00;;;;;;;;;;5096578;28;20360;-76
2021/03/29 01:08:07;;;;;;;15.18;7.20;;;;;;;;;;5094645;28;20173;-76
2021/03/29 01:10:33;;;;;;;15.30;6.78;;;;;;;;;;5095144;28;20123;-76
2021/03/29 01:13:02;;;;;;;12.50;6.15;;;;;;;;;;5095428;28;20024;-77
2021/03/29 01:15:27;;;;;;;19.73;7.47;;;;;;;;;;5094657;28;20253;-74
2021/03/29 01:17:55;;;;;;;15.80;7.93;;;;;;;;;;5095194;28;20480;-74
2021/03/29 01:20:44;;;;;;;16.92;7.72;;;;;;;;;;5095292;28;20042;-74
2021/03/29 01:23:09;;;;;;;14.15;6.05;;;;;;;;;;5086680;28;20033;-74
2021/03/29 01:25:42;;;;;;;18.65;6.93;;;;;;;;;;5095137;28;20099;-74
2021/03/29 01:28:12;;;;;;;12.82;6.07;;;;;;;;;;5095105;28;20056;-75
2021/03/29 01:30:38;;;;;;;12.38;6.00;;;;;;;;;;5094900;28;20024;-74
2021/03/29 01:33:05;;;;;;;17.15;6.40;;;;;;;;;;5095020;28;20031;-73
2021/03/29 01:35:32;;;;;;;20.33;6.93;;;;;;;;;;5095022;28;20069;-74
2021/03/29 01:37:58;;;;;;;15.30;6.65;;;;;;;;;;5094968;28;20039;-74
2021/03/29 01:40:24;;;;;;;13.82;6.03;;;;;;;;;;5094804;28;20035;-74
2021/03/29 01:42:52;;;;;;;24.20;7.18;;;;;;;;;;5094749;28;20028;-74
2021/03/29 01:45:20;;;;;;;19.63;6.95;;;;;;;;;;5094831;28;20028;-75
2021/03/29 01:47:49;;;;;;;16.25;6.55;;;;;;;;;;5094639;28;20024;-76
2021/03/29 01:50:17;;;;;;;16.77;7.53;;;;;;;;;;5094578;28;20016;-76
2021/03/29 01:52:42;;;;;;;16.90;7.30;;;;;;;;;;5094606;28;20019;-76
2021/03/29 01:55:10;;;;;;;15.50;6.97;;;;;;;;;;5094661;28;20035;-74
2021/03/29 01:57:36;;;;;;;21.77;7.60;;;;;;;;;;5093409;28;20012;-75
2021/03/29 02:00:12;;;;;;;15.88;7.75;;;;;;;;;;5094483;28;20043;-74
2021/03/29 02:02:37;;;;;;;16.23;7.43;;;;;;;;;;5094637;28;20165;-74
2021/03/29 02:05:06;;;;;;;13.60;7.20;;;;;;;;;;5093397;28;20111;-76
2021/03/29 02:07:31;;;;;;;16.27;8.55;;;;;;;;;;5094380;28;20458;-76
2021/03/29 02:09:57;;;;;;;16.92;7.57;;;;;;;;;;5094182;28;20059;-75
2021/03/29 02:12:25;;;;;;;15.00;7.25;;;;;;;;;;5093274;28;20024;-76
2021/03/29 02:14:52;;;;;;;17.85;7.05;;;;;;;;;;5094277;28;20356;-75
2021/03/29 02:17:18;;;;;;;17.60;7.10;;;;;;;;;;5094163;28;20647;-75
2021/03/29 02:19:43;;;;;;;17.05;7.88;;;;;;;;;;5094060;28;20024;-74
2021/03/29 02:22:09;;;;;;;23.48;7.70;;;;;;;;;;5094037;28;20019;-75
2021/03/29 02:24:34;;;;;;;16.42;6.97;;;;;;;;;;5092859;28;20467;-75
2021/03/29 02:27:02;;;;;;;22.17;7.28;;;;;;;;;;5094016;28;20060;-75
2021/03/29 02:29:28;;;;;;;17.90;6.90;;;;;;;;;;5093606;28;20042;-74
2021/03/29 02:31:57;;;;;;;11.95;6.20;;;;;;;;;;5093905;28;20016;-75
2021/03/29 02:34:25;;;;;;;17.73;7.25;;;;;;;;;;5093749;28;20443;-74
2021/03/29 02:36:53;;;;;;;19.65;7.18;;;;;;;;;;5092599;28;20036;-75
2021/03/29 02:39:22;;;;;;;18.00;7.57;;;;;;;;;;5092955;28;20039;-75
2021/03/29 02:41:48;;;;;;;18.45;7.93;;;;;;;;;;5093549;28;20039;-75
2021/03/29 02:44:15;;;;;;;14.00;7.38;;;;;;;;;;5093622;28;20393;-75
2021/03/29 02:46:41;;;;;;;14.27;7.43;;;;;;;;;;5093601;28;20043;-73
2021/03/29 02:49:07;;;;;;;16.00;6.78;;;;;;;;;;5093553;28;20020;-73
2021/03/29 02:51:33;;;;;;;12.82;6.97;;;;;;;;;;5093725;28;20028;-73
2021/03/29 02:54:08;;;;;;;23.85;7.65;;;;;;;;;;5092610;28;20024;-74
2021/03/29 02:56:38;;;;;;;18.20;7.38;;;;;;;;;;5093144;28;20351;-74
2021/03/29 02:59:06;;;;;;;14.05;7.10;;;;;;;;;;5093492;28;20095;-74
2021/03/29 03:01:37;;;;;;;17.08;7.32;;;;;;;;;;5092538;28;20024;-74
2021/03/29 03:04:06;;;;;;;15.93;7.50;;;;;;;;;;5093447;28;20453;-73
2021/03/29 03:06:31;;;;;;;16.45;7.10;;;;;;;;;;5093473;28;20595;-73
2021/03/29 03:08:59;;;;;;;13.43;7.18;;;;;;;;;;5093237;28;20046;-74
2021/03/29 03:11:24;;;;;;;16.52;7.85;;;;;;;;;;5093441;28;20046;-75
2021/03/29 03:13:50;;;;;;;16.58;7.30;;;;;;;;;;5093498;28;20433;-75
2021/03/29 03:16:15;;;;;;;15.23;7.07;;;;;;;;;;5093401;28;20103;-75
2021/03/29 03:18:40;;;;;;;15.18;7.10;;;;;;;;;;5094182;28;20035;-75
2021/03/29 03:21:07;;;;;;;16.80;6.65;;;;;;;;;;5093518;28;20405;-74
2021/03/29 03:23:32;;;;;;;16.52;6.80;;;;;;;;;;5092302;28;20031;-74
2021/03/29 03:25:59;;;;;;;16.85;7.00;;;;;;;;;;5093308;28;20384;-74
2021/03/29 03:28:29;;;;;;;17.05;7.30;;;;;;;;;;5092241;28;20406;-74
2021/03/29 03:30:55;;;;;;;15.07;7.30;;;;;;;;;;5092841;28;20524;-74
2021/03/29 03:33:25;;;;;;;17.05;7.57;;;;;;;;;;5093335;28;20610;-74
2021/03/29 03:35:51;;;;;;;17.67;6.63;;;;;;;;;;5093115;28;20028;-74
2021/03/29 03:38:18;;;;;;;16.90;7.90;;;;;;;;;;5093151;28;20031;-73
2021/03/29 03:40:45;;;;;;;16.88;7.72;;;;;;;;;;5092015;28;20448;-74
2021/03/29 03:43:11;;;;;;;12.85;6.32;;;;;;;;;;5093116;28;20038;-74
2021/03/29 03:45:47;;;;;;;20.50;7.72;;;;;;;;;;5091940;28;20411;-75
2021/03/29 03:48:13;;;;;;;16.45;7.70;;;;;;;;;;5092395;28;20069;-74
2021/03/29 03:50:39;;;;;;;16.42;7.75;;;;;;;;;;5093010;28;20031;-74
2021/03/29 03:53:05;;;;;;;15.55;6.95;;;;;;;;;;5092781;28;20012;-74
2021/03/29 03:55:33;;;;;;;17.00;7.20;;;;;;;;;;5092906;28;20028;-74
2021/03/29 03:57:58;;;;;;;17.60;7.90;;;;;;;;;;5092821;28;20012;-75
2021/03/29 04:00:25;;;;;;;13.68;7.82;;;;;;;;;;5092816;28;20027;-75
2021/03/29 04:02:50;;;;;;;17.00;7.38;;;;;;;;;;5092824;28;20345;-75
2021/03/29 04:05:17;;;;;;;14.32;7.88;;;;;;;;;;5092818;28;20012;-75
2021/03/29 04:07:45;;;;;;;16.08;7.22;;;;;;;;;;5093321;28;20063;-76
2021/03/29 04:10:54;;;;;;;16.13;7.47;;;;;;;;;;5096448;28;20044;-75
2021/03/29 04:12:59;;;;;;;20.02;7.82;;;;;;;;;;5093496;28;20143;-75
2021/03/29 04:15:24;;;;;;;15.95;7.80;;;;;;;;;;5095431;28;20225;-76
2021/03/29 04:17:49;;;;;;;15.70;7.45;;;;;;;;;;5096465;28;20016;-76
2021/03/29 04:20:16;;;;;;;17.10;8.45;;;;;;;;;;5096519;28;20016;-77
2021/03/29 04:22:44;;;;;;;17.45;8.30;;;;;;;;;;5096360;28;20031;-74
2021/03/29 04:25:10;;;;;;;20.20;8.40;;;;;;;;;;5096165;28;20028;-74
2021/03/29 04:27:36;;;;;;;16.75;7.55;;;;;;;;;;5096368;28;20020;-76
2021/03/29 04:30:02;;;;;;;14.48;7.38;;;;;;;;;;5096147;28;20050;-75
2021/03/29 04:32:27;;;;;;;17.63;7.75;;;;;;;;;;5096234;28;20023;-75
2021/03/29 04:34:53;;;;;;;18.38;8.18;;;;;;;;;;5096238;28;20032;-75
2021/03/29 04:37:18;;;;;;;16.58;7.80;;;;;;;;;;5096031;28;20345;-75
2021/03/29 04:39:43;;;;;;;19.73;8.05;;;;;;;;;;5095222;28;20352;-75
2021/03/29 04:42:08;;;;;;;17.88;7.70;;;;;;;;;;5096253;28;20318;-75
2021/03/29 04:44:34;;;;;;;13.35;7.38;;;;;;;;;;5094883;28;20024;-73
2021/03/29 04:46:59;;;;;;;17.13;8.05;;;;;;;;;;5094906;28;20153;-74
2021/03/29 04:49:24;;;;;;;16.80;7.43;;;;;;;;;;5096195;28;20020;-73
2021/03/29 04:51:50;;;;;;;15.70;7.82;;;;;;;;;;5095949;28;20020;-74
2021/03/29 04:54:15;;;;;;;16.13;7.63;;;;;;;;;;5095817;28;20412;-74
2021/03/29 04:56:40;;;;;;;15.95;7.88;;;;;;;;;;5096161;28;20020;-75
2021/03/29 04:59:05;;;;;;;19.38;7.80;;;;;;;;;;5095795;28;20016;-73
2021/03/29 05:01:31;;;;;;;15.32;7.40;;;;;;;;;;5095555;28;21045;-73
2021/03/29 05:03:56;;;;;;;18.42;7.93;;;;;;;;;;5095690;28;20044;-74
2021/03/29 05:06:21;;;;;;;18.25;8.00;;;;;;;;;;5095568;28;20107;-73
2021/03/29 05:08:46;;;;;;;15.43;8.20;;;;;;;;;;5095557;28;20023;-73
2021/03/29 05:11:12;;;;;;;16.00;7.65;;;;;;;;;;5095131;28;20056;-73
2021/03/29 05:13:37;;;;;;;18.00;7.38;;;;;;;;;;5094470;28;20024;-73
2021/03/29 05:16:05;;;;;;;19.13;8.35;;;;;;;;;;5095534;28;20016;-73
2021/03/29 05:18:31;;;;;;;21.60;8.73;;;;;;;;;;5094987;28;20393;-75
2021/03/29 05:20:56;;;;;;;15.48;8.35;;;;;;;;;;5095286;28;20091;-73
2021/03/29 05:23:22;;;;;;;16.92;8.55;;;;;;;;;;5095315;28;20447;-73
2021/03/29 05:25:50;;;;;;;16.25;8.70;;;;;;;;;;5089738;28;20099;-76
2021/03/29 05:28:18;;;;;;;19.25;8.38;;;;;;;;;;5089047;28;20106;-75
2021/03/29 05:30:46;;;;;;;22.58;8.80;;;;;;;;;;5077135;28;20596;-76
2021/03/29 05:33:11;;;;;;;21.88;8.27;;;;;;;;;;5062010;28;20401;-76
2021/03/29 05:35:36;;;;;;;15.88;7.53;;;;;;;;;;5095385;28;20084;-78
2021/03/29 05:38:04;;;;;;;17.80;7.70;;;;;;;;;;5087057;28;20017;-78
2021/03/29 05:40:29;;;;;;;21.33;8.93;;;;;;;;;;5092441;28;20020;-76
2021/03/29 05:42:55;;;;;;;19.92;8.77;;;;;;;;;;5082412;28;20028;-75
2021/03/29 05:45:20;;;;;;;16.80;8.48;;;;;;;;;;5079428;28;20438;-77
2021/03/29 05:47:48;;;;;;;17.98;8.73;;;;;;;;;;5086403;28;20077;-77
2021/03/29 05:50:15;;;;;;;20.27;8.30;;;;;;;;;;5086813;28;20016;-76
2021/03/29 05:52:41;;;;;;;18.77;8.40;;;;;;;;;;5078443;28;20033;-77
2021/03/29 05:55:11;;;;;;;16.90;8.13;;;;;;;;;;5091234;28;20066;-76
2021/03/29 05:57:54;;;;;;;17.08;8.63;;;;;;;;;;5073904;28;20021;-79
2021/03/29 06:00:34;;;;;;;17.73;8.05;;;;;;;;;;5074559;28;20031;-79
2021/03/29 06:03:19;;;;;;;23.13;8.45;;;;;;;;;;5074665;28;20062;-79
2021/03/29 06:05:47;;;;;;;21.42;8.70;;;;;;;;;;5074691;28;20446;-77
2021/03/29 06:08:12;;;;;;;32.33;10.82;;;;;;;;;;5073145;28;20020;-77
2021/03/29 06:10:38;;;;;;;20.10;8.77;;;;;;;;;;5073960;28;20051;-81
2021/03/29 06:13:19;;;;;;;17.73;8.18;;;;;;;;;;5074135;28;20013;-76
2021/03/29 06:15:47;;;;;;;13.85;7.65;;;;;;;;;;5074111;28;20020;-76
2021/03/29 06:18:16;;;;;;;16.55;7.68;;;;;;;;;;5073921;28;20497;-77
2021/03/29 06:21:00;;;;;;;22.45;8.32;;;;;;;;;;5070379;28;20465;-83
2021/03/29 06:23:25;;;;;;;16.50;8.02;;;;;;;;;;5077164;28;20040;-83
2021/03/29 06:25:50;;;;;;;18.83;7.90;;;;;;;;;;5072105;28;20059;-77
2021/03/29 06:28:23;;;;;;;17.95;7.72;;;;;;;;;;5079429;28;20360;-77
2021/03/29 06:30:48;;;;;;;22.95;7.80;;;;;;;;;;5051777;28;20024;-80
2021/03/29 06:33:17;;;;;;;18.05;7.40;;;;;;;;;;5072281;28;20020;-80
2021/03/29 06:35:44;;;;;;;15.85;7.30;;;;;;;;;;5072160;28;20016;-79
2021/03/29 06:38:12;;;;;;;18.48;7.43;;;;;;;;;;5072128;28;20024;-77
2021/03/29 06:40:39;;;;;;;15.65;7.60;;;;;;;;;;5076477;28;20048;-78
2021/03/29 06:43:19;;;;;;;15.63;7.35;;;;;;;;;;5080501;28;20028;-74
2021/03/29 06:45:44;;;;;;;15.25;6.72;;;;;;;;;;5073279;28;20078;-74
2021/03/29 06:48:19;;;;;;;14.43;7.07;;;;;;;;;;5072647;28;20028;-74
2021/03/29 06:51:01;;;;;;;17.20;6.85;;;;;;;;;;5073551;28;20025;-75
2021/03/29 06:54:04;;;;;;;14.52;7.50;;;;;;;;;;5073125;28;20024;-74
2021/03/29 06:56:39;;;;;;;16.13;7.25;;;;;;;;;;5032894;28;20030;-75
2021/03/29 06:59:17;;;;;;;15.57;7.65;;;;;;;;;;5069614;28;20036;-73
2021/03/29 07:01:49;;;;;;;15.82;7.05;;;;;;;;;;5071254;28;20023;-74
2021/03/29 07:07:13;;;;;;;22.02;7.43;;;;;;;;;;5062735;28;20028;-75
2021/03/29 07:09:39;;;;;;;13.10;7.53;;;;;;;;;;5080460;28;20484;-76
2021/03/29 07:12:05;;;;;;;17.77;6.72;;;;;;;;;;5073051;28;20025;-78
2021/03/29 07:14:31;;;;;;;14.73;6.60;;;;;;;;;;5075597;28;20099;-76
2021/03/29 07:16:58;;;;;;;16.65;6.75;;;;;;;;;;5085996;28;20147;-76
2021/03/29 07:19:24;;;;;;;18.60;8.10;;;;;;;;;;5083540;28;20016;-75
2021/03/29 07:21:50;;;;;;;16.08;6.72;;;;;;;;;;5079507;28;20028;-74
2021/03/29 07:24:15;;;;;;;16.83;6.85;;;;;;;;;;5075591;28;20031;-75
2021/03/29 07:26:55;;;;;;;13.63;6.60;;;;;;;;;;5088872;28;20020;-74
2021/03/29 07:29:24;;;;;;;16.77;6.85;;;;;;;;;;5081133;28;20039;-78
2021/03/29 07:31:53;;;;;;;20.77;7.40;;;;;;;;;;5072437;28;20341;-73
2021/03/29 07:34:39;;;;;;;14.40;6.05;;;;;;;;;;5073325;28;20034;-74
2021/03/29 07:37:24;;;;;;;14.77;6.18;;;;;;;;;;5073327;28;20040;-76
2021/03/29 07:39:49;;;;;;;14.82;6.20;;;;;;;;;;5086373;28;20432;-73
2021/03/29 07:42:24;;;;;;;15.77;6.22;;;;;;;;;;5075650;28;20028;-73
2021/03/29 07:45:02;;;;;;;15.95;6.38;;;;;;;;;;5082284;28;20445;-74
2021/03/29 07:47:41;;;;;;;13.05;6.00;;;;;;;;;;5085161;28;20456;-73
2021/03/29 07:50:06;;;;;;;14.07;5.90;;;;;;;;;;5093277;28;20110;-73
2021/03/29 07:52:53;;;;;;;13.35;6.07;;;;;;;;;;5079959;28;20095;-74
2021/03/29 07:55:18;;;;;;;;;;;;;;;;;;5075424;28;20020;-72
2021/03/29 07:57:44;;;;;;;14.80;6.13;;;;;;;;;;5083175;28;19915;-73
2021/03/29 08:00:10;;;;;;;13.77;5.75;;;;;;;;;;5076760;28;20035;-73
2021/03/29 08:02:38;;;;;;;10.00;5.60;;;;;;;;;;5083749;28;20459;-72
2021/03/29 08:05:14;;;;;;;13.75;5.68;;;;;;;;;;5079666;28;20512;-72
2021/03/29 08:07:41;;;;;;;20.92;6.65;;;;;;;;;;5071290;28;20207;-72
2021/03/29 08:10:08;;;;;;;13.57;5.50;;;;;;;;;;5092154;28;20101;-73
2021/03/29 08:12:33;;;;;;;14.40;5.20;;;;;;;;;;5093343;28;20150;-73
2021/03/29 08:14:59;;;;;;;11.68;5.38;;;;;;;;;;5076451;28;20070;-71
2021/03/29 08:17:34;;;;;;;14.05;5.65;;;;;;;;;;5086629;28;20016;-71
2021/03/29 08:20:09;;;;;;;12.63;5.95;;;;;;;;;;5076297;28;20116;-71
2021/03/29 08:22:37;;;;;;;14.70;4.93;;;;;;;;;;5073289;28;20019;-71
2021/03/29 08:25:02;;;;;;;13.77;5.10;;;;;;;;;;5088938;28;20217;-73
2021/03/29 08:27:29;;;;;;;13.63;4.70;;;;;;;;;;5087039;28;20149;-72
2021/03/29 08:30:10;;;;;;;11.00;4.80;;;;;;;;;;5081137;28;20026;-76
2021/03/29 08:32:38;;;;;;;12.63;4.40;;;;;;;;;;5063718;28;20012;-72
2021/03/29 08:35:07;;;;;;;9.90;4.40;;;;;;;;;;5088400;28;20046;-73
2021/03/29 08:37:36;;;;;;;13.82;4.43;;;;;;;;;;5086578;28;20054;-73
2021/03/29 08:40:09;;;;;;;8.93;4.25;;;;;;;;;;5078826;28;20082;-74
2021/03/29 08:42:35;;;;;;;9.27;4.40;;;;;;;;;;5062684;28;20024;-72
2021/03/29 08:45:01;;;;;;;10.73;4.50;;;;;;;;;;5088333;28;20433;-73
2021/03/29 08:47:27;;;;;;;11.25;4.22;;;;;;;;;;5074418;28;20032;-72
2021/03/29 08:49:55;;;;;;;11.82;3.92;;;;;;;;;;5087655;28;20028;-75
2021/03/29 08:52:21;;;;;;;11.18;4.30;;;;;;;;;;5076446;28;20036;-74
2021/03/29 08:54:47;;;;;;;11.40;4.03;;;;;;;;;;5085218;28;20147;-72
2021/03/29 08:57:13;;;;;;;12.00;3.53;;;;;;;;;;5078389;28;20039;-72
2021/03/29 08:59:38;;;;;;;13.23;3.70;;;;;;;;;;5083463;28;20019;-74
2021/03/29 09:02:14;;;;;;;7.53;3.08;;;;;;;;;;5083455;28;20072;-75
2021/03/29 09:04:56;;;;;;;9.40;3.42;;;;;;;;;;5078744;28;20017;-73
2021/03/29 09:07:27;;;;;;;11.82;3.60;;;;;;;;;;5085052;28;20024;-75
2021/03/29 09:09:54;;;;;;;13.75;4.22;;;;;;;;;;5084231;28;20094;-73
2021/03/29 09:12:27;;;;;;;8.65;3.13;;;;;;;;;;5079021;28;20100;-73
2021/03/29 09:14:52;;;;;;;9.55;3.38;;;;;;;;;;5091868;28;20031;-74
2021/03/29 09:17:21;;;;;;;7.90;2.80;;;;;;;;;;5075454;28;20017;-74
2021/03/29 09:19:46;;;;;;;8.65;2.45;;;;;;;;;;5073850;28;20017;-75
2021/03/29 09:22:24;;;;;;;6.20;2.42;;;;;;;;;;5074334;28;20391;-74
2021/03/29 09:24:50;;;;;;;6.43;2.55;;;;;;;;;;5073453;28;20025;-73
2021/03/29 09:27:21;;;;;;;7.60;2.88;;;;;;;;;;5074296;28;20507;-72
2021/03/29 09:29:47;;;;;;;9.93;3.65;;;;;;;;;;5074557;28;20273;-72
2021/03/29 09:32:13;;;;;;;5.22;2.30;;;;;;;;;;5077505;28;20440;-72
2021/03/29 09:34:39;;;;;;;10.00;2.50;;;;;;;;;;5084132;28;20037;-73
2021/03/29 09:37:15;;;;;;;6.82;2.65;;;;;;;;;;5089769;28;20111;-74
2021/03/29 09:39:40;;;;;;;23.02;3.42;;;;;;;;;;5074420;28;20460;-74
2021/03/29 09:42:08;;;;;;;5.70;2.10;;;;;;;;;;5074517;28;20060;-74
2021/03/29 09:44:33;;;;;;;7.65;2.50;;;;;;;;;;5074436;28;20025;-74
2021/03/29 09:46:59;;;;;;;9.52;2.75;;;;;;;;;;5074563;28;20494;-74
2021/03/29 09:49:25;;;;;;;4.55;2.08;;;;;;;;;;5074294;28;20055;-75
2021/03/29 09:51:51;;;;;;;9.45;2.63;;;;;;;;;;5074459;28;20051;-74
2021/03/29 09:54:19;;;;;;;4.07;1.85;;;;;;;;;;5074430;28;20410;-73
2021/03/29 09:56:45;;;;;;;7.43;2.50;;;;;;;;;;5074413;28;20032;-73
2021/03/29 09:59:12;;;;;;;9.63;2.85;;;;;;;;;;5074386;28;20016;-74
2021/03/29 10:01:42;;;;;;;7.80;2.67;;;;;;;;;;5074533;28;20372;-74
2021/03/29 10:04:12;;;;;;;6.45;2.20;;;;;;;;;;5073146;28;20387;-74
2021/03/29 10:06:49;;;;;;;10.52;2.50;;;;;;;;;;5073005;28;20020;-74
2021/03/29 10:09:14;;;;;;;4.45;1.65;;;;;;;;;;5073850;28;20053;-74
2021/03/29 10:11:43;;;;;;;8.23;2.50;;;;;;;;;;5072995;28;20020;-74
2021/03/29 10:14:15;;;;;;;8.73;2.30;;;;;;;;;;5074013;28;20032;-74
2021/03/29 10:16:44;;;;;;;9.15;2.65;;;;;;;;;;5073825;28;20377;-73
2021/03/29 10:19:14;;;;;;;6.78;2.30;;;;;;;;;;5073752;28;20027;-73
2021/03/29 10:21:57;;;;;;;3.53;1.73;;;;;;;;;;5073733;28;20653;-73
2021/03/29 10:24:23;;;;;;;6.07;1.70;;;;;;;;;;5073803;28;20023;-73
2021/03/29 10:26:58;;;;;;;3.15;1.50;;;;;;;;;;5073756;28;20489;-73
2021/03/29 10:29:39;;;;;;;6.53;1.77;;;;;;;;;;5072730;28;20107;-74
2021/03/29 10:32:07;;;;;;;4.35;1.52;;;;;;;;;;5078248;28;20017;-73
2021/03/29 10:34:38;;;;;;;5.85;1.80;;;;;;;;;;5077540;28;20073;-74
2021/03/29 10:37:05;;;;;;;4.35;1.75;;;;;;;;;;5073498;28;20062;-74
2021/03/29 10:39:31;;;;;;;4.45;1.75;;;;;;;;;;5072378;28;20145;-73
2021/03/29 10:41:56;;;;;;;7.68;1.67;;;;;;;;;;5072314;28;20070;-73
2021/03/29 10:44:26;;;;;;;3.30;1.67;;;;;;;;;;5072517;28;20039;-73
2021/03/29 10:46:51;;;;;;;3.38;1.40;;;;;;;;;;5073455;28;20246;-74
2021/03/29 10:49:16;;;;;;;4.60;1.50;;;;;;;;;;5073260;28;20357;-73
2021/03/29 10:51:42;;;;;;;4.68;1.85;;;;;;;;;;5073260;28;20054;-73
2021/03/29 10:54:07;;;;;;;4.53;1.58;;;;;;;;;;5073211;28;20017;-73
2021/03/29 10:56:33;;;;;;;6.53;1.90;;;;;;;;;;5072880;28;20029;-74
2021/03/29 10:58:58;;;;;;;4.75;1.58;;;;;;;;;;5072865;28;20025;-73
2021/03/29 11:01:23;;;;;;;3.15;1.80;;;;;;;;;;5072328;28;20103;-73
2021/03/29 11:03:48;;;;;;;5.93;1.50;;;;;;;;;;5072635;28;20075;-74
2021/03/29 11:06:14;;;;;;;3.90;1.60;;;;;;;;;;5071844;28;20267;-75
2021/03/29 11:08:41;;;;;;;5.83;1.70;;;;;;;;;;5072855;28;20259;-75
2021/03/29 11:11:06;;;;;;;4.70;1.77;;;;;;;;;;5072842;28;20703;-75
2021/03/29 11:13:34;;;;;;;3.78;1.73;;;;;;;;;;5073133;28;20051;-75
2021/03/29 11:16:00;;;;;;;2.88;1.55;;;;;;;;;;5072940;28;20021;-75
2021/03/29 11:18:26;;;;;;;5.40;1.65;;;;;;;;;;5072633;28;20016;-76
2021/03/29 11:20:51;;;;;;;3.50;1.50;;;;;;;;;;5073076;28;20112;-74
2021/03/29 11:23:16;;;;;;;6.07;1.67;;;;;;;;;;5072886;28;20040;-75
2021/03/29 11:25:44;;;;;;;3.50;1.83;;;;;;;;;;5073142;28;20396;-75
2021/03/29 11:28:11;;;;;;;3.15;1.60;;;;;;;;;;5072932;28;20695;-75
2021/03/29 11:30:39;;;;;;;3.33;1.58;;;;;;;;;;5072911;28;20028;-75
2021/03/29 11:33:05;;;;;;;2.08;1.20;;;;;;;;;;5072985;28;20353;-75
2021/03/29 11:35:30;;;;;;;5.63;1.67;;;;;;;;;;5072941;28;20032;-75
2021/03/29 11:37:57;;;;;;;3.20;1.50;;;;;;;;;;5072946;28;20012;-75
2021/03/29 11:40:23;;;;;;;2.47;1.25;;;;;;;;;;5072743;28;20020;-75
2021/03/29 11:42:48;;;;;;;3.20;1.67;;;;;;;;;;5072580;28;20433;-75
2021/03/29 11:45:16;;;;;;;2.37;1.40;;;;;;;;;;5072449;28;20251;-76
2021/03/29 11:47:41;;;;;;;3.28;1.40;;;;;;;;;;5072612;28;20441;-75
2021/03/29 11:50:11;;;;;;;3.03;1.40;;;;;;;;;;5071157;28;20087;-75
2021/03/29 11:52:36;;;;;;;2.38;1.23;;;;;;;;;;5057433;28;20456;-75
2021/03/29 11:55:01;;;;;;;2.97;1.37;;;;;;;;;;5072622;28;20021;-75
2021/03/29 11:57:26;;;;;;;2.20;1.40;;;;;;;;;;5059998;28;20267;-75
2021/03/29 11:59:53;;;;;;;3.90;1.30;;;;;;;;;;5069174;28;20283;-75
2021/03/29 12:02:25;;;;;;;2.42;1.30;;;;;;;;;;5072706;28;20443;-75
2021/03/29 12:07:26;;;;;;;2.95;1.30;;;;;;;;;;5073116;28;20062;-75
2021/03/29 12:12:39;;;;;;;2.97;1.35;;;;;;;;;;5045099;28;20040;-76
2021/03/29 12:15:05;;;;;;;1.83;1.30;;;;;;;;;;5072560;28;20322;-76
2021/03/29 12:17:30;;;;;;;2.00;1.10;;;;;;;;;;5071771;28;20021;-74
2021/03/29 12:19:55;;;;;;;4.22;1.20;;;;;;;;;;5072528;28;20017;-75
2021/03/29 12:22:23;;;;;;;2.87;1.30;;;;;;;;;;5072370;28;20016;-76
2021/03/29 12:24:53;;;;;;;5.25;1.30;;;;;;;;;;5071362;28;20024;-76
2021/03/29 12:27:19;;;;;;;3.38;1.45;;;;;;;;;;5072392;28;20452;-75
2021/03/29 12:29:45;;;;;;;2.55;1.30;;;;;;;;;;5074108;28;20024;-75
2021/03/29 12:32:12;;;;;;;4.05;1.35;;;;;;;;;;5075990;28;20020;-75
2021/03/29 12:34:41;;;;;;;3.47;1.52;;;;;;;;;;5075899;28;20028;-75
2021/03/29 12:37:06;;;;;;;4.00;1.30;;;;;;;;;;5074836;28;20067;-76
2021/03/29 12:39:36;;;;;;;4.18;1.30;;;;;;;;;;5076100;28;20453;-75
2021/03/29 12:42:03;;;;;;;2.08;1.30;;;;;;;;;;5074789;28;20111;-75
2021/03/29 12:44:32;;;;;;;3.42;1.38;;;;;;;;;;5074162;28;20024;-74
2021/03/29 12:46:58;;;;;;;3.17;1.60;;;;;;;;;;5068304;28;20361;-74
2021/03/29 12:49:23;;;;;;;2.42;1.45;;;;;;;;;;5057439;28;20036;-75
2021/03/29 12:51:57;;;;;;;1.92;1.20;;;;;;;;;;5063190;28;20016;-74
2021/03/29 12:54:26;;;;;;;2.78;1.50;;;;;;;;;;5075709;28;20040;-75
2021/03/29 12:56:53;;;;;;;4.15;1.40;;;;;;;;;;5075296;28;20016;-75
2021/03/29 12:59:19;;;;;;;2.92;1.40;;;;;;;;;;5068920;28;20099;-74
2021/03/29 13:01:48;;;;;;;8.80;1.55;;;;;;;;;;5073065;28;20424;-72
2021/03/29 13:04:29;;;;;;;6.45;1.55;;;;;;;;;;5074689;28;20402;-72
2021/03/29 13:11:52;;;;;;;2.00;1.48;;;;;;;;;;5075440;28;20025;-74
2021/03/29 13:14:20;;;;;;;5.03;1.30;;;;;;;;;;5075150;28;20422;-74
2021/03/29 13:16:45;;;;;;;3.60;1.30;;;;;;;;;;5079467;28;20021;-73
2021/03/29 13:19:12;;;;;;;2.65;1.40;;;;;;;;;;5077212;28;20032;-73
2021/03/29 13:21:40;;;;;;;2.22;1.27;;;;;;;;;;5075047;28;20407;-78
2021/03/29 13:24:07;;;;;;;2.53;1.20;;;;;;;;;;5074640;28;20034;-73
2021/03/29 13:26:34;;;;;;;7.75;1.55;;;;;;;;;;5074526;28;20027;-75
2021/03/29 13:28:59;;;;;;;2.78;1.20;;;;;;;;;;5074178;28;20040;-74
2021/03/29 13:31:25;;;;;;;3.53;1.40;;;;;;;;;;5074455;28;20028;-74
2021/03/29 13:33:50;;;;;;;3.25;1.20;;;;;;;;;;5076405;28;20092;-73
2021/03/29 13:36:16;;;;;;;2.45;1.50;;;;;;;;;;5073129;28;20100;-73
2021/03/29 13:38:41;;;;;;;3.63;1.30;;;;;;;;;;5074147;28;20021;-74
2021/03/29 13:41:07;;;;;;;3.53;1.40;;;;;;;;;;5075005;28;20124;-74
2021/03/29 13:43:38;;;;;;;5.47;1.50;;;;;;;;;;5078635;28;20016;-74
2021/03/29 13:46:04;;;;;;;2.08;1.00;;;;;;;;;;5076024;28;20095;-73
2021/03/29 13:48:29;;;;;;;3.63;1.58;;;;;;;;;;5077407;28;20431;-75
2021/03/29 13:50:56;;;;;;;3.63;1.63;;;;;;;;;;5074084;28;20068;-72
2021/03/29 13:53:24;;;;;;;5.55;1.50;;;;;;;;;;5071978;28;20251;-73
2021/03/29 13:55:50;;;;;;;1.92;1.45;;;;;;;;;;5070984;28;20069;-72
2021/03/29 13:58:18;;;;;;;2.65;1.40;;;;;;;;;;5075156;28;20024;-72
2021/03/29 14:00:44;;;;;;;2.30;1.30;;;;;;;;;;5072685;28;20020;-72
2021/03/29 14:03:13;;;;;;;3.28;1.40;;;;;;;;;;5079660;28;20162;-73
2021/03/29 14:05:41;;;;;;;1.75;1.25;;;;;;;;;;5072889;28;20032;-74
2021/03/29 14:08:06;;;;;;;1.63;1.17;;;;;;;;;;5076792;28;20020;-74
2021/03/29 14:10:34;;;;;;;3.13;1.30;;;;;;;;;;5075215;28;20049;-74
2021/03/29 14:13:00;;;;;;;4.45;1.65;;;;;;;;;;5071524;28;20652;-74
2021/03/29 14:15:26;;;;;;;2.42;1.40;;;;;;;;;;5075141;28;20052;-76
2021/03/29 14:17:54;;;;;;;3.45;1.20;;;;;;;;;;5081132;28;20036;-74
2021/03/29 14:20:21;;;;;;;4.78;1.50;;;;;;;;;;5074849;28;20112;-74
2021/03/29 14:22:47;;;;;;;2.28;1.30;;;;;;;;;;5086609;28;20124;-74
2021/03/29 14:25:13;;;;;;;2.95;1.45;;;;;;;;;;5078803;28;20099;-74
2021/03/29 14:27:39;;;;;;;3.42;1.48;;;;;;;;;;5073382;28;20016;-72
2021/03/29 14:30:05;;;;;;;3.38;1.10;;;;;;;;;;5079657;28;20025;-74
2021/03/29 14:32:31;;;;;;;2.65;1.23;;;;;;;;;;5081192;28;20093;-73
2021/03/29 14:35:06;;;;;;;2.83;1.25;;;;;;;;;;5081950;28;20353;-74
2021/03/29 14:45:31;;;;;;;3.25;1.63;;;;;;;;;;5081671;28;20030;-73
2021/03/29 14:47:56;;;;;;;3.95;1.10;;;;;;;;;;5073147;28;20023;-74
2021/03/29 14:50:22;;;;;;;3.03;1.43;;;;;;;;;;5073317;28;20020;-74
2021/03/29 14:52:50;;;;;;;3.15;1.20;;;;;;;;;;5072578;28;20336;-74
2021/03/29 14:55:17;;;;;;;3.50;1.35;;;;;;;;;;5073366;28;20020;-73
2021/03/29 14:57:42;;;;;;;5.50;1.55;;;;;;;;;;5071996;28;20081;-74
2021/03/29 15:00:09;;;;;;;3.33;1.37;;;;;;;;;;5073049;28;20020;-74
2021/03/29 15:02:37;;;;;;;2.17;1.40;;;;;;;;;;5072654;28;20319;-74